createdAt,value
2022-08-26T00:02:30.676Z,91.40
2022-08-26T00:07:32.455Z,91.40
2022-08-26T00:12:37.262Z,91.10
2022-08-26T00:17:40.350Z,91.20
2022-08-26T00:22:42.690Z,91.20
2022-08-26T00:27:44.664Z,91.20
2022-08-26T00:32:46.672Z,91.40
2022-08-26T00:37:49.134Z,91.40
2022-08-26T00:42:51.177Z,91.40
2022-08-26T00:47:57.765Z,91.60
2022-08-26T00:53:01.814Z,92.10
2022-08-26T00:58:04.807Z,92.60
2022-08-26T01:03:07.568Z,92.70
2022-08-26T01:08:14.412Z,93.00
2022-08-26T01:13:17.147Z,93.10
2022-08-26T01:18:22.249Z,93.00
2022-08-26T01:23:28.744Z,93.20
2022-08-26T01:28:33.713Z,93.40
2022-08-26T01:33:45.951Z,93.90
2022-08-26T01:38:47.827Z,94.30
2022-08-26T01:43:53.172Z,94.30
2022-08-26T01:48:58.788Z,94.70
2022-08-26T01:54:00.920Z,94.80
2022-08-26T01:59:06.926Z,94.80
2022-08-26T02:04:41.492Z,95.10
2022-08-26T02:09:44.209Z,95.60
2022-08-26T02:14:53.756Z,95.60
2022-08-26T02:19:56.201Z,95.40
2022-08-26T02:25:06.769Z,96.20
2022-08-26T02:30:11.578Z,96.10
2022-08-26T02:35:20.118Z,96.40
2022-08-26T02:40:27.296Z,96.30
2022-08-26T02:45:29.496Z,96.30
2022-08-26T02:50:31.897Z,96.40
2022-08-26T02:55:34.035Z,96.60
2022-08-26T03:00:39.757Z,97.20
2022-08-26T03:05:54.969Z,97.20
2022-08-26T03:10:56.724Z,97.50
2022-08-26T03:16:01.505Z,97.70
2022-08-26T03:21:07.628Z,97.70
2022-08-26T03:26:10.975Z,97.60
2022-08-26T03:31:13.023Z,97.90
2022-08-26T03:36:15.348Z,98.50
2022-08-26T03:41:17.967Z,98.90
2022-08-26T03:46:21.161Z,98.30
2022-08-26T03:51:25.291Z,98.10
2022-08-26T03:56:27.548Z,98.10
2022-08-26T04:01:29.832Z,98.20
2022-08-26T04:06:36.123Z,97.80
2022-08-26T04:11:39.652Z,97.70
2022-08-26T04:16:42.435Z,98.00
2022-08-26T04:21:46.391Z,98.20
2022-08-26T04:26:48.769Z,98.80
2022-08-26T04:31:55.264Z,99.20
2022-08-26T04:36:58.218Z,99.20
2022-08-26T04:42:00.570Z,99.10
2022-08-26T04:47:04.661Z,99.40
2022-08-26T04:52:06.402Z,99.60
2022-08-26T04:57:09.863Z,99.80
2022-08-26T05:02:11.845Z,98.90
2022-08-26T05:07:13.588Z,98.70
2022-08-26T05:12:19.387Z,99.10
2022-08-26T05:17:21.236Z,99.10
2022-08-26T05:22:22.978Z,98.80
2022-08-26T05:27:24.717Z,96.60
2022-08-26T05:32:27.443Z,94.10
2022-08-26T05:37:30.936Z,91.80
2022-08-26T05:42:33.426Z,90.40
2022-08-26T05:47:35.818Z,87.60
2022-08-26T05:52:37.818Z,83.70
2022-08-26T05:57:42.762Z,81.00
2022-08-26T06:02:44.721Z,79.00
2022-08-26T06:08:08.894Z,78.20
2022-08-26T06:13:12.512Z,78.30
2022-08-26T06:18:16.683Z,75.50
2022-08-26T06:23:37.400Z,72.60
2022-08-26T06:28:43.759Z,71.50
2022-08-26T06:33:47.461Z,68.10
2022-08-26T06:38:50.452Z,69.00
2022-08-26T06:43:52.366Z,67.70
2022-08-26T06:48:54.955Z,67.10
2022-08-26T06:54:00.062Z,65.30
2022-08-26T06:59:02.081Z,64.90
2022-08-26T07:04:10.512Z,64.80
2022-08-26T07:09:12.705Z,65.10
2022-08-26T07:14:16.756Z,65.60
2022-08-26T07:19:29.773Z,65.30
2022-08-26T07:24:37.326Z,68.30
2022-08-26T07:29:40.093Z,70.90
2022-08-26T07:34:42.449Z,71.20
2022-08-26T07:39:45.172Z,67.10
2022-08-26T07:44:47.503Z,61.90
2022-08-26T07:49:49.241Z,60.90
2022-08-26T07:54:56.437Z,60.10
2022-08-26T07:59:59.405Z,58.50
2022-08-26T08:05:01.203Z,59.50
2022-08-26T08:10:09.616Z,60.10
2022-08-26T08:15:15.379Z,57.70
2022-08-26T08:20:17.329Z,56.80
2022-08-26T08:25:20.152Z,55.40
2022-08-26T08:30:23.275Z,55.60
2022-08-26T08:35:26.406Z,54.40
2022-08-26T08:40:29.344Z,55.30
2022-08-26T08:45:43.118Z,56.20
2022-08-26T08:51:07.485Z,57.60
2022-08-26T08:56:28.864Z,59.10
2022-08-26T09:01:45.396Z,57.60
2022-08-26T09:06:49.728Z,55.00
2022-08-26T09:11:52.271Z,53.70
2022-08-26T09:17:10.196Z,56.00
2022-08-26T09:22:29.497Z,58.70
2022-08-26T09:27:50.403Z,62.50
2022-08-26T09:33:10.158Z,64.60
2022-08-26T09:38:34.064Z,65.50
2022-08-26T09:43:35.855Z,66.30
2022-08-26T09:48:41.092Z,66.40
2022-08-26T09:54:01.771Z,66.60
2022-08-26T09:59:08.284Z,66.20
2022-08-26T10:04:30.723Z,63.30
2022-08-26T10:09:40.514Z,63.80
2022-08-26T10:14:49.670Z,73.50
2022-08-26T10:20:04.007Z,76.50
2022-08-26T10:25:12.997Z,72.20
2022-08-26T10:30:19.152Z,69.10
2022-08-26T10:35:21.307Z,71.30
2022-08-26T10:40:45.331Z,72.70
2022-08-26T10:46:00.275Z,68.60
2022-08-26T10:51:04.175Z,67.60
2022-08-26T10:56:15.736Z,67.50
2022-08-26T11:01:57.638Z,69.80
2022-08-26T11:07:35.354Z,71.30
2022-08-26T11:12:37.184Z,72.60
2022-08-26T11:17:45.254Z,69.90
2022-08-26T11:22:48.280Z,67.90
2022-08-26T11:27:51.690Z,68.00
2022-08-26T11:32:57.177Z,64.70
2022-08-26T11:38:27.102Z,62.00
2022-08-26T11:43:30.246Z,60.60
2022-08-26T11:48:33.326Z,60.40
2022-08-26T11:53:38.473Z,60.00
2022-08-26T11:58:44.746Z,60.90
2022-08-26T12:03:51.440Z,60.60
2022-08-26T12:08:57.932Z,60.10
2022-08-26T12:14:03.388Z,56.60
2022-08-26T12:19:32.753Z,54.60
2022-08-26T12:24:35.728Z,54.00
2022-08-26T12:29:37.531Z,53.20
2022-08-26T12:34:43.671Z,51.50
2022-08-26T12:39:46.213Z,51.70
2022-08-26T12:45:00.678Z,52.30
2022-08-26T12:50:19.460Z,51.10
2022-08-26T12:55:26.442Z,49.80
2022-08-26T13:00:36.869Z,50.60
2022-08-26T13:05:38.640Z,47.80
2022-08-26T13:10:46.576Z,47.60
2022-08-26T13:15:48.326Z,52.50
2022-08-26T13:20:50.069Z,54.70
2022-08-26T13:25:52.167Z,54.90
2022-08-26T13:30:53.927Z,62.00
2022-08-26T13:35:55.717Z,59.00
2022-08-26T13:40:59.719Z,56.60
2022-08-26T13:46:01.847Z,73.90
2022-08-26T13:51:09.000Z,90.50
2022-08-26T13:56:11.224Z,91.30
2022-08-26T14:01:13.774Z,94.70
2022-08-26T14:06:16.533Z,97.10
2022-08-26T14:11:21.389Z,98.90
2022-08-26T14:16:28.994Z,97.90
2022-08-26T14:21:33.569Z,97.20
2022-08-26T14:26:35.420Z,97.10
2022-08-26T14:31:37.785Z,98.60
2022-08-26T14:36:39.891Z,98.90
2022-08-26T14:41:53.859Z,99.90
2022-08-26T14:46:57.090Z,99.30
2022-08-26T14:51:59.236Z,99.60
2022-08-26T14:57:03.777Z,99.90
2022-08-26T15:02:07.627Z,99.90
2022-08-26T15:07:09.834Z,99.90
2022-08-26T15:12:14.569Z,99.90
2022-08-26T15:17:16.311Z,99.90
2022-08-26T15:22:18.736Z,99.90
2022-08-26T15:27:20.954Z,99.90
2022-08-26T15:32:22.846Z,99.90
2022-08-26T15:37:24.643Z,99.90
2022-08-26T15:42:26.395Z,99.90
2022-08-26T15:47:28.176Z,99.90
2022-08-26T15:52:30.272Z,99.90
2022-08-26T15:57:32.134Z,99.90
2022-08-26T16:02:35.051Z,99.90
2022-08-26T16:07:37.033Z,99.90
2022-08-26T16:12:38.773Z,99.90
2022-08-26T16:17:40.701Z,99.90
2022-08-26T16:22:42.784Z,99.90
2022-08-26T16:27:44.499Z,99.90
2022-08-26T16:32:46.678Z,99.90
2022-08-26T16:37:48.421Z,99.90
2022-08-26T16:42:50.462Z,99.90
2022-08-26T16:47:52.869Z,99.90
2022-08-26T16:52:55.761Z,99.90
2022-08-26T16:57:57.624Z,99.90
2022-08-26T17:03:01.213Z,99.90
2022-08-26T17:08:04.338Z,99.90
2022-08-26T17:13:06.434Z,99.90
2022-08-26T17:18:08.989Z,99.90
2022-08-26T17:23:10.850Z,99.90
2022-08-26T17:28:13.635Z,99.90
2022-08-26T17:33:17.126Z,99.90
2022-08-26T17:38:24.401Z,99.90
2022-08-26T17:43:26.791Z,99.90
2022-08-26T17:48:28.844Z,99.90
2022-08-26T17:53:30.602Z,99.90
2022-08-26T17:58:32.345Z,99.90
2022-08-26T18:03:37.067Z,99.90
2022-08-26T18:08:40.113Z,99.90
2022-08-26T18:13:47.020Z,99.90
2022-08-26T18:18:53.074Z,99.90
2022-08-26T18:23:55.880Z,99.90
2022-08-26T18:28:57.837Z,99.90
2022-08-26T18:34:01.473Z,99.90
2022-08-26T18:39:05.255Z,99.90
2022-08-26T18:44:12.953Z,99.90
2022-08-26T18:49:18.043Z,99.90
2022-08-26T18:59:28.473Z,99.90
2022-08-26T19:04:32.337Z,99.90
2022-08-26T19:09:34.611Z,99.90
2022-08-26T19:14:37.860Z,99.90
2022-08-26T19:19:39.651Z,99.90
2022-08-26T19:24:41.382Z,99.90
2022-08-26T19:29:43.207Z,99.90
2022-08-26T19:34:44.933Z,99.90
2022-08-26T19:39:47.670Z,99.90
2022-08-26T19:45:24.750Z,99.90
2022-08-26T19:50:29.396Z,99.90
2022-08-26T19:55:31.313Z,99.90
2022-08-26T20:00:34.540Z,99.90
2022-08-26T20:05:36.322Z,99.90
2022-08-26T20:10:39.092Z,99.90
2022-08-26T20:15:43.111Z,99.90
2022-08-26T20:21:03.652Z,99.90
2022-08-26T20:26:05.612Z,99.90
2022-08-26T20:31:08.077Z,99.90
2022-08-26T20:36:12.008Z,99.90
2022-08-26T20:41:14.310Z,99.90
2022-08-26T20:46:18.831Z,99.90
2022-08-26T20:51:26.435Z,99.90
2022-08-26T20:56:28.221Z,99.90
2022-08-26T21:01:34.570Z,99.90
2022-08-26T21:06:38.178Z,99.90
2022-08-26T21:11:41.410Z,99.90
2022-08-26T21:16:44.149Z,99.90
2022-08-26T21:21:48.177Z,99.90
2022-08-26T21:26:49.946Z,99.90
2022-08-26T21:31:51.708Z,99.90
2022-08-26T21:36:53.565Z,99.90
2022-08-26T21:41:55.337Z,99.90
2022-08-26T21:46:57.074Z,99.90
2022-08-26T21:51:58.819Z,99.90
2022-08-26T21:57:00.731Z,99.90
2022-08-26T22:02:02.673Z,99.90
2022-08-26T22:07:04.983Z,99.90
2022-08-26T22:12:10.130Z,99.90
2022-08-26T22:17:12.458Z,99.90
2022-08-26T22:22:14.528Z,99.90
2022-08-26T22:27:16.263Z,99.90
2022-08-26T22:32:18.556Z,99.90
2022-08-26T22:37:20.328Z,99.90
2022-08-26T22:42:22.366Z,99.90
2022-08-26T22:47:24.451Z,99.90
2022-08-26T22:52:26.309Z,99.90
2022-08-26T22:57:28.058Z,99.90
2022-08-26T23:02:29.781Z,99.90
2022-08-26T23:07:31.516Z,99.90
2022-08-26T23:12:36.827Z,99.90
2022-08-26T23:17:39.551Z,99.90
2022-08-26T23:22:41.305Z,99.90
2022-08-26T23:27:43.473Z,99.90
2022-08-26T23:32:45.326Z,99.90
2022-08-26T23:37:51.029Z,99.90
2022-08-26T23:42:54.884Z,99.90
2022-08-26T23:47:56.744Z,99.90
2022-08-26T23:53:08.702Z,99.90
2022-08-26T23:58:11.052Z,99.90
